createdAt,value
2022-12-31T00:01:10.463Z,101256.75
2022-12-31T00:03:39.026Z,101236.09
2022-12-31T00:06:36.917Z,101233.66
2022-12-31T00:09:07.075Z,101263.06
2022-12-31T00:11:36.347Z,101254.31
2022-12-31T00:14:04.177Z,101193.72
2022-12-31T00:16:37.088Z,101270.38
2022-12-31T00:19:06.547Z,101252.22
2022-12-31T00:21:34.877Z,101266.31
2022-12-31T00:24:04.626Z,101162.97
2022-12-31T00:26:34.558Z,101256.22
2022-12-31T00:29:06.267Z,101253.78
2022-12-31T00:31:36.973Z,101270.69
2022-12-31T00:34:06.362Z,101214.94
2022-12-31T00:36:39.332Z,101251.63
2022-12-31T00:39:08.545Z,101258.72
2022-12-31T00:41:36.314Z,101230.47
2022-12-31T00:44:04.824Z,101257.91
2022-12-31T00:46:32.713Z,101159.19
2022-12-31T00:49:00.435Z,101186.13
2022-12-31T00:51:28.764Z,101261.44
2022-12-31T00:53:57.384Z,101192.91
2022-12-31T00:56:28.301Z,101253.25
2022-12-31T00:58:56.500Z,101254.06
2022-12-31T01:01:50.885Z,101149.09
2022-12-31T01:04:21.211Z,101225.78
2022-12-31T01:06:49.099Z,101258.97
2022-12-31T01:09:18.848Z,101249.97
2022-12-31T01:11:46.745Z,101227.75
2022-12-31T01:14:17.023Z,101185.56
2022-12-31T01:16:46.108Z,101220.97
2022-12-31T01:19:20.618Z,101266.63
2022-12-31T01:21:49.132Z,101264.69
2022-12-31T01:24:17.986Z,101260.63
2022-12-31T01:26:47.067Z,101228.28
2022-12-31T01:29:15.113Z,101224.19
2022-12-31T01:31:43.248Z,101222.31
2022-12-31T01:34:11.297Z,101214.41
2022-12-31T01:36:39.525Z,101247.53
2022-12-31T01:39:08.748Z,101251.63
2022-12-31T01:41:41.556Z,101219.56
2022-12-31T01:44:12.402Z,101239.13
2022-12-31T01:46:45.830Z,101185.56
2022-12-31T01:49:39.294Z,101246.72
2022-12-31T01:52:11.858Z,101238.81
2022-12-31T01:54:55.186Z,101243.47
2022-12-31T01:57:26.080Z,101247.28
2022-12-31T01:59:56.396Z,101234.25
2022-12-31T02:02:24.614Z,101242.97
2022-12-31T02:04:55.628Z,101261.44
2022-12-31T02:07:23.892Z,101201.13
2022-12-31T02:09:52.461Z,101282.16
2022-12-31T02:12:20.891Z,101187.47
2022-12-31T02:14:52.100Z,101183.69
2022-12-31T02:17:29.025Z,101289.53
2022-12-31T02:20:30.926Z,101273.16
2022-12-31T02:23:28.006Z,101276.19
2022-12-31T02:26:18.316Z,101274.53
2022-12-31T02:29:20.152Z,101261.16
2022-12-31T02:31:56.669Z,101252.97
2022-12-31T02:34:59.279Z,101253.56
2022-12-31T02:37:30.607Z,101211.41
2022-12-31T02:39:59.287Z,101239.41
2022-12-31T02:42:27.063Z,101232.63
2022-12-31T02:44:54.849Z,101247.00
2022-12-31T02:47:41.180Z,101252.97
2022-12-31T02:50:40.581Z,101248.63
2022-12-31T02:53:15.384Z,101250.53
2022-12-31T02:55:49.196Z,101248.09
2022-12-31T02:59:13.880Z,101245.09
2022-12-31T03:02:05.414Z,101209.47
2022-12-31T03:04:34.378Z,101210.00
2022-12-31T03:07:11.133Z,101207.00
2022-12-31T03:09:39.372Z,101197.72
2022-12-31T03:12:29.907Z,101144.97
2022-12-31T03:14:58.204Z,101225.44
2022-12-31T03:17:26.726Z,101202.59
2022-12-31T03:20:14.490Z,101091.97
2022-12-31T03:22:43.652Z,101215.63
2022-12-31T03:25:36.140Z,101194.97
2022-12-31T03:28:07.727Z,101217.84
2022-12-31T03:30:37.492Z,101223.53
2022-12-31T03:33:07.282Z,101199.09
2022-12-31T03:35:37.166Z,101221.91
2022-12-31T03:38:05.895Z,101211.81
2022-12-31T03:40:39.357Z,101217.81
2022-12-31T03:43:09.810Z,101199.34
2022-12-31T03:45:37.818Z,101162.06
2022-12-31T03:48:08.378Z,101203.63
2022-12-31T03:50:37.221Z,101170.75
2022-12-31T03:53:05.940Z,101148.22
2022-12-31T03:55:33.699Z,101201.97
2022-12-31T03:58:01.568Z,101170.53
2022-12-31T04:00:29.838Z,101218.34
2022-12-31T04:02:57.794Z,101212.88
2022-12-31T04:05:26.276Z,101169.94
2022-12-31T04:07:55.860Z,101198.22
2022-12-31T04:10:24.542Z,101151.81
2022-12-31T04:12:52.370Z,101224.59
2022-12-31T04:15:21.775Z,101206.69
2022-12-31T04:17:49.630Z,101224.09
2022-12-31T04:20:17.807Z,101167.28
2022-12-31T04:22:46.471Z,101227.63
2022-12-31T04:25:14.539Z,101147.72
2022-12-31T04:27:46.123Z,101227.63
2022-12-31T04:30:14.559Z,101182.81
2022-12-31T04:32:43.067Z,101161.59
2022-12-31T04:35:11.736Z,101125.47
2022-12-31T04:37:39.705Z,101234.72
2022-12-31T04:40:08.782Z,101249.16
2022-12-31T04:42:36.900Z,101246.19
2022-12-31T04:45:05.174Z,101249.44
2022-12-31T04:47:33.242Z,101211.91
2022-12-31T04:50:01.214Z,101219.00
2022-12-31T04:52:29.066Z,101221.44
2022-12-31T04:54:56.870Z,101234.47
2022-12-31T04:57:26.258Z,101257.09
2022-12-31T04:59:54.152Z,101207.06
2022-12-31T05:02:22.145Z,101258.72
2022-12-31T05:04:50.210Z,101254.34
2022-12-31T05:07:18.812Z,101250.31
2022-12-31T05:09:46.698Z,101258.97
2022-12-31T05:12:14.395Z,101275.31
2022-12-31T05:14:42.318Z,101159.75
2022-12-31T05:17:10.386Z,101256.00
2022-12-31T05:19:38.129Z,101223.41
2022-12-31T05:22:24.464Z,101231.56
2022-12-31T05:24:52.527Z,101185.84
2022-12-31T05:27:20.515Z,101247.34
2022-12-31T05:29:48.439Z,101283.00
2022-12-31T05:32:16.679Z,101239.47
2022-12-31T05:34:44.752Z,101272.16
2022-12-31T05:37:12.936Z,101231.06
2022-12-31T05:39:40.891Z,101265.63
2022-12-31T05:42:08.751Z,101203.56
2022-12-31T05:44:36.551Z,101250.66
2022-12-31T05:47:04.440Z,101299.09
2022-12-31T05:49:32.265Z,101234.63
2022-12-31T05:52:00.328Z,101255.56
2022-12-31T05:54:28.113Z,101298.00
2022-12-31T05:56:56.067Z,101253.41
2022-12-31T05:59:24.089Z,101238.69
2022-12-31T06:01:52.049Z,101289.31
2022-12-31T06:04:19.822Z,101212.03
2022-12-31T06:06:47.726Z,101273.78
2022-12-31T06:09:16.536Z,101242.22
2022-12-31T06:11:45.152Z,101246.31
2022-12-31T06:14:14.017Z,101312.72
2022-12-31T06:16:42.797Z,101258.88
2022-12-31T06:19:10.849Z,101306.16
2022-12-31T06:21:38.814Z,101314.06
2022-12-31T06:24:06.850Z,101242.53
2022-12-31T06:26:35.619Z,101308.91
2022-12-31T06:29:04.265Z,101265.94
2022-12-31T06:31:32.182Z,101323.63
2022-12-31T06:33:59.987Z,101280.34
2022-12-31T06:36:30.323Z,101289.31
2022-12-31T06:39:01.509Z,101290.69
2022-12-31T06:41:29.307Z,101306.22
2022-12-31T06:43:57.317Z,101327.72
2022-12-31T06:46:27.032Z,101284.19
2022-12-31T06:48:57.916Z,101266.22
2022-12-31T06:51:25.741Z,101307.31
2022-12-31T06:53:53.843Z,101306.78
2022-12-31T06:56:33.856Z,101327.44
2022-12-31T06:59:04.331Z,101230.84
2022-12-31T07:01:57.683Z,101329.06
2022-12-31T07:04:31.751Z,101332.91
2022-12-31T07:07:14.331Z,101323.38
2022-12-31T07:10:00.333Z,101324.19
2022-12-31T07:12:40.718Z,101294.53
2022-12-31T07:15:37.440Z,101302.44
2022-12-31T07:18:08.186Z,101331.03
2022-12-31T07:20:36.283Z,101279.03
2022-12-31T07:23:04.477Z,101303.53
2022-12-31T07:25:33.593Z,101293.19
2022-12-31T07:28:07.553Z,101327.47
2022-12-31T07:30:52.828Z,101312.22
2022-12-31T07:33:56.104Z,101330.22
2022-12-31T07:36:55.374Z,101332.66
2022-12-31T07:39:42.059Z,101310.06
2022-12-31T07:42:19.929Z,101325.53
2022-12-31T07:45:11.261Z,101332.09
2022-12-31T07:47:39.829Z,101293.72
2022-12-31T07:50:17.093Z,101329.09
2022-12-31T07:52:46.510Z,101333.72
2022-12-31T07:55:14.556Z,101299.16
2022-12-31T07:57:59.083Z,101342.16
2022-12-31T08:00:30.145Z,101341.34
2022-12-31T08:03:22.202Z,101347.63
2022-12-31T08:05:54.412Z,101351.44
2022-12-31T08:08:33.303Z,101349.81
2022-12-31T08:11:21.784Z,101342.75
2022-12-31T08:13:50.782Z,101351.44
2022-12-31T08:16:19.204Z,101350.63
2022-12-31T08:18:48.562Z,101270.03
2022-12-31T08:21:19.308Z,101343.81
2022-12-31T08:23:57.763Z,101353.59
2022-12-31T08:26:52.792Z,101343.81
2022-12-31T08:29:56.773Z,101355.25
2022-12-31T08:32:36.861Z,101268.41
2022-12-31T08:35:23.456Z,101361.50
2022-12-31T08:38:20.206Z,101366.41
2022-12-31T08:41:06.201Z,101364.78
2022-12-31T08:43:57.263Z,101340.00
2022-12-31T08:46:45.061Z,101360.69
2022-12-31T08:49:14.919Z,101368.59
2022-12-31T08:51:43.185Z,101332.41
2022-12-31T08:54:12.527Z,101310.34
2022-12-31T08:57:19.621Z,101383.84
2022-12-31T09:00:09.211Z,101385.75
2022-12-31T09:03:08.559Z,101386.56
2022-12-31T09:06:13.353Z,101399.38
2022-12-31T09:09:13.359Z,101399.94
2022-12-31T09:12:05.395Z,101407.84
2022-12-31T09:15:01.817Z,101409.19
2022-12-31T09:17:51.440Z,101403.47
2022-12-31T09:20:42.741Z,101366.13
2022-12-31T09:23:13.658Z,101370.50
2022-12-31T09:26:10.243Z,101386.81
2022-12-31T09:29:01.938Z,101361.25
2022-12-31T09:31:38.944Z,101423.56
2022-12-31T09:34:42.050Z,101424.09
2022-12-31T09:37:22.843Z,101390.38
2022-12-31T09:39:51.359Z,101426.59
2022-12-31T09:42:44.648Z,101427.16
2022-12-31T09:45:47.728Z,101435.34
2022-12-31T09:48:37.288Z,101442.66
2022-12-31T09:51:28.299Z,101417.63
2022-12-31T09:54:17.749Z,101439.94
2022-12-31T09:56:57.113Z,101438.84
2022-12-31T09:59:54.463Z,101437.50
2022-12-31T10:02:51.155Z,101443.50
2022-12-31T10:05:31.719Z,101441.59
2022-12-31T10:08:24.063Z,101448.97
2022-12-31T10:11:03.457Z,101427.41
2022-12-31T10:13:49.783Z,101434.75
2022-12-31T10:16:20.796Z,101436.94
2022-12-31T10:19:32.737Z,101429.28
2022-12-31T10:22:37.942Z,101433.94
2022-12-31T10:25:37.926Z,101413.75
2022-12-31T10:28:30.407Z,101426.56
2022-12-31T10:31:20.269Z,101430.91
2022-12-31T10:34:08.303Z,101415.91
2022-12-31T10:36:55.936Z,101409.88
2022-12-31T10:39:48.344Z,101413.69
2022-12-31T10:42:53.617Z,101407.94
2022-12-31T10:45:43.293Z,101406.03
2022-12-31T10:48:40.657Z,101397.56
2022-12-31T10:51:32.880Z,101393.19
2022-12-31T10:54:27.242Z,101345.84
2022-12-31T10:57:25.811Z,101388.25
2022-12-31T11:00:04.060Z,101341.47
2022-12-31T11:03:03.045Z,101345.25
2022-12-31T11:05:31.156Z,101297.88
2022-12-31T11:08:18.110Z,101381.16
2022-12-31T11:11:24.122Z,101376.22
2022-12-31T11:14:21.353Z,101334.88
2022-12-31T11:17:41.825Z,101354.44
2022-12-31T11:20:40.216Z,101379.75
2022-12-31T11:23:35.231Z,101363.66
2022-12-31T11:26:14.977Z,101366.09
2022-12-31T11:28:48.772Z,101363.38
2022-12-31T11:31:49.006Z,101364.19
2022-12-31T11:34:25.840Z,101365.00
2022-12-31T11:37:18.511Z,101361.47
2022-12-31T11:40:14.090Z,101359.25
2022-12-31T11:45:43.226Z,101367.94
2022-12-31T11:48:41.456Z,101369.28
2022-12-31T11:51:50.414Z,101360.84
2022-12-31T11:54:39.626Z,101335.56
2022-12-31T11:57:35.712Z,101308.06
2022-12-31T12:00:19.911Z,101362.47
2022-12-31T12:03:07.567Z,101340.16
2022-12-31T12:05:35.740Z,101346.09
2022-12-31T12:08:03.601Z,101338.50
2022-12-31T12:10:36.757Z,101352.38
2022-12-31T12:13:17.117Z,101348.25
2022-12-31T12:16:00.879Z,101341.16
2022-12-31T12:18:41.118Z,101345.50
2022-12-31T12:21:21.280Z,101315.03
2022-12-31T12:24:18.310Z,101313.88
2022-12-31T12:26:46.320Z,101320.97
2022-12-31T12:29:20.605Z,101326.91
2022-12-31T12:32:07.541Z,101319.03
2022-12-31T12:34:37.818Z,101317.91
2022-12-31T12:37:21.936Z,101256.75
2022-12-31T12:40:01.089Z,101306.25
2022-12-31T12:42:30.266Z,101271.19
2022-12-31T12:45:18.944Z,101319.84
2022-12-31T12:47:50.315Z,101291.53
2022-12-31T12:50:22.123Z,101220.94
2022-12-31T12:52:59.352Z,101314.91
2022-12-31T12:55:37.697Z,101244.22
2022-12-31T12:58:24.073Z,101308.06
2022-12-31T13:01:08.239Z,101267.56
2022-12-31T13:04:14.717Z,101298.47
2022-12-31T13:07:33.990Z,101294.66
2022-12-31T13:10:43.648Z,101285.16
2022-12-31T13:13:37.657Z,101300.13
2022-12-31T13:16:30.289Z,101297.91
2022-12-31T13:19:04.154Z,101295.16
2022-12-31T13:22:03.432Z,101289.25
2022-12-31T13:24:40.350Z,101295.16
2022-12-31T13:27:31.066Z,101240.53
2022-12-31T13:30:03.061Z,101292.19
2022-12-31T13:32:43.283Z,101287.53
2022-12-31T13:35:29.216Z,101295.72
2022-12-31T13:38:21.836Z,101287.53
2022-12-31T13:41:09.447Z,101277.75
2022-12-31T13:44:08.716Z,101254.41
2022-12-31T13:46:51.717Z,101253.25
2022-12-31T13:49:27.522Z,101287.53
2022-12-31T13:52:32.494Z,101265.75
2022-12-31T13:55:10.991Z,101268.47
2022-12-31T13:57:57.009Z,101274.97
2022-12-31T14:00:29.808Z,101250.28
2022-12-31T14:03:10.254Z,101269.53
2022-12-31T14:05:52.838Z,101279.34
2022-12-31T14:08:23.563Z,101275.53
2022-12-31T14:11:07.581Z,101236.72
2022-12-31T14:13:49.868Z,101272.81
2022-12-31T14:16:34.086Z,101282.63
2022-12-31T14:19:14.288Z,101286.16
2022-12-31T14:21:56.025Z,101289.72
2022-12-31T14:24:32.822Z,101276.13
2022-12-31T14:27:05.604Z,101291.38
2022-12-31T14:29:41.452Z,101285.63
2022-12-31T14:32:34.631Z,101265.22
2022-12-31T14:35:35.333Z,101283.69
2022-12-31T14:38:08.611Z,101280.97
2022-12-31T14:40:52.458Z,101287.25
2022-12-31T14:43:38.604Z,101280.97
2022-12-31T14:46:22.252Z,101255.41
2022-12-31T14:49:16.193Z,101277.13
2022-12-31T14:51:44.339Z,101198.59
2022-12-31T14:54:29.487Z,101244.97
2022-12-31T14:56:57.453Z,101254.78
2022-12-31T14:59:29.027Z,101280.31
2022-12-31T15:01:58.557Z,101286.63
2022-12-31T15:04:43.461Z,101234.91
2022-12-31T15:07:37.851Z,101266.16
2022-12-31T15:10:08.781Z,101287.38
2022-12-31T15:12:58.680Z,101284.34
2022-12-31T15:15:51.838Z,101269.16
2022-12-31T15:18:38.220Z,101288.47
2022-12-31T15:21:28.095Z,101248.28
2022-12-31T15:23:56.586Z,101284.72
2022-12-31T15:26:31.692Z,101288.56
2022-12-31T15:29:08.663Z,101296.16
2022-12-31T15:31:46.963Z,101279.28
2022-12-31T15:34:34.896Z,101236.81
2022-12-31T15:37:06.538Z,101293.97
2022-12-31T15:39:41.647Z,101286.06
2022-12-31T15:42:38.239Z,101292.63
2022-12-31T15:45:17.301Z,101289.38
2022-12-31T15:47:50.188Z,101276.63
2022-12-31T15:50:21.231Z,101246.19
2022-12-31T15:53:03.049Z,101287.47
2022-12-31T15:55:41.770Z,101274.16
2022-12-31T15:58:16.882Z,101287.47
2022-12-31T16:00:47.450Z,101291.81
2022-12-31T16:03:29.738Z,101279.56
2022-12-31T16:06:02.033Z,101299.50
2022-12-31T16:08:35.224Z,101288.84
2022-12-31T16:11:09.113Z,101293.22
2022-12-31T16:13:43.550Z,101283.63
2022-12-31T16:16:20.889Z,101242.66
2022-12-31T16:18:50.319Z,101237.25
2022-12-31T16:21:27.243Z,101307.94
2022-12-31T16:23:58.766Z,101299.06
2022-12-31T16:26:50.104Z,101311.09
2022-12-31T16:29:21.910Z,101326.38
2022-12-31T16:31:54.060Z,101330.22
2022-12-31T16:34:24.337Z,101307.72
2022-12-31T16:37:01.891Z,101328.13
2022-12-31T16:39:31.195Z,101340.72
2022-12-31T16:42:14.386Z,101340.75
2022-12-31T16:44:42.477Z,101331.53
2022-12-31T16:47:40.699Z,101315.00
2022-12-31T16:50:17.541Z,101307.66
2022-12-31T16:52:49.027Z,101338.69
2022-12-31T16:55:23.896Z,101335.97
2022-12-31T16:57:58.262Z,101340.06
2022-12-31T17:00:26.868Z,101330.56
2022-12-31T17:03:03.779Z,101344.94
2022-12-31T17:05:33.024Z,101353.66
2022-12-31T17:08:15.785Z,101355.84
2022-12-31T17:10:43.718Z,101307.16
2022-12-31T17:13:37.934Z,101360.47
2022-12-31T17:16:06.429Z,101302.00
2022-12-31T17:18:38.890Z,101337.38
2022-12-31T17:21:09.578Z,101320.78
2022-12-31T17:23:40.110Z,101367.31
2022-12-31T17:26:22.319Z,101371.41
2022-12-31T17:28:56.418Z,101371.97
2022-12-31T17:31:30.045Z,101371.44
2022-12-31T17:34:14.129Z,101383.44
2022-12-31T17:36:52.316Z,101310.53
2022-12-31T17:39:23.157Z,101376.94
2022-12-31T17:41:55.456Z,101376.94
2022-12-31T17:44:28.330Z,101352.41
2022-12-31T17:46:56.460Z,101376.94
2022-12-31T17:49:30.405Z,101379.09
2022-12-31T17:52:00.332Z,101387.03
2022-12-31T17:54:28.464Z,101380.72
2022-12-31T17:56:56.479Z,101275.94
2022-12-31T17:59:29.876Z,101348.59
2022-12-31T18:02:01.872Z,101365.47
2022-12-31T18:04:29.794Z,101359.50
2022-12-31T18:06:57.949Z,101379.66
2022-12-31T18:09:25.691Z,101384.84
2022-12-31T18:11:58.238Z,101368.53
2022-12-31T18:14:29.032Z,101381.59
2022-12-31T18:16:56.889Z,101391.41
2022-12-31T18:19:54.402Z,101376.19
2022-12-31T18:22:16.576Z,101356.63
2022-12-31T18:24:44.808Z,101403.72
2022-12-31T18:27:18.232Z,101338.38
2022-12-31T18:29:46.692Z,101369.97
2022-12-31T18:32:21.919Z,101374.59
2022-12-31T18:34:50.254Z,101389.00
2022-12-31T18:37:22.064Z,101414.06
2022-12-31T18:39:50.283Z,101415.72
2022-12-31T18:42:19.526Z,101401.59
2022-12-31T18:44:47.542Z,101401.00
2022-12-31T18:47:19.660Z,101414.38
2022-12-31T18:49:52.036Z,101402.66
2022-12-31T18:52:23.759Z,101413.84
2022-12-31T18:54:54.630Z,101416.03
2022-12-31T18:57:22.536Z,101387.72
2022-12-31T18:59:50.390Z,101419.28
2022-12-31T19:02:21.550Z,101426.38
2022-12-31T19:04:49.317Z,101446.81
2022-12-31T19:07:18.421Z,101387.72
2022-12-31T19:09:48.312Z,101449.00
2022-12-31T19:12:18.236Z,101405.41
2022-12-31T19:14:46.162Z,101443.81
2022-12-31T19:17:14.670Z,101396.16
2022-12-31T19:19:42.515Z,101434.25
2022-12-31T19:22:15.326Z,101428.78
2022-12-31T19:24:44.855Z,101451.66
2022-12-31T19:27:12.970Z,101456.31
2022-12-31T19:29:40.820Z,101456.31
2022-12-31T19:32:11.347Z,101421.72
2022-12-31T19:34:39.440Z,101449.78
2022-12-31T19:37:07.187Z,101445.44
2022-12-31T19:39:35.129Z,101433.75
2022-12-31T19:42:03.239Z,101450.59
2022-12-31T19:44:31.045Z,101398.06
2022-12-31T19:47:01.227Z,101447.63
2022-12-31T19:49:29.245Z,101468.59
2022-12-31T19:51:57.019Z,101360.75
2022-12-31T19:54:25.109Z,101417.38
2022-12-31T19:56:53.130Z,101468.31
2022-12-31T19:59:21.118Z,101416.84
2022-12-31T20:01:48.923Z,101470.78
2022-12-31T20:04:18.261Z,101475.41
2022-12-31T20:06:47.510Z,101387.72
2022-12-31T20:09:15.417Z,101459.88
2022-12-31T20:11:43.206Z,101443.81
2022-12-31T20:14:12.308Z,101417.16
2022-12-31T20:16:40.091Z,101420.94
2022-12-31T20:19:11.890Z,101484.16
2022-12-31T20:21:40.393Z,101380.94
2022-12-31T20:24:09.044Z,101475.44
2022-12-31T20:26:37.421Z,101431.03
2022-12-31T20:29:05.326Z,101499.94
2022-12-31T20:31:33.367Z,101496.97
2022-12-31T20:34:01.154Z,101432.41
2022-12-31T20:36:29.050Z,101464.25
2022-12-31T20:39:00.337Z,101496.97
2022-12-31T20:41:28.205Z,101499.69
2022-12-31T20:43:56.016Z,101436.47
2022-12-31T20:46:28.117Z,101474.66
2022-12-31T20:48:58.683Z,101495.06
2022-12-31T20:51:28.597Z,101521.50
2022-12-31T20:54:06.045Z,101512.78
2022-12-31T20:56:36.713Z,101515.00
2022-12-31T20:59:05.571Z,101514.13
2022-12-31T21:01:55.576Z,101491.81
2022-12-31T21:04:22.033Z,101492.09
2022-12-31T21:06:49.918Z,101502.69
2022-12-31T21:09:17.830Z,101494.53
2022-12-31T21:12:03.979Z,101489.63
2022-12-31T21:14:31.701Z,101465.09
2022-12-31T21:16:59.586Z,101514.41
2022-12-31T21:19:27.415Z,101493.72
2022-12-31T21:21:55.260Z,101473.25
2022-12-31T21:24:24.256Z,101504.88
2022-12-31T21:26:55.060Z,101488.25
2022-12-31T21:29:23.070Z,101481.41
2022-12-31T21:31:51.033Z,101511.97
2022-12-31T21:34:18.934Z,101493.16
2022-12-31T21:36:47.976Z,101499.69
2022-12-31T21:39:17.404Z,101493.44
2022-12-31T21:41:54.025Z,101497.50
2022-12-31T21:44:26.501Z,101511.72
2022-12-31T21:47:41.275Z,101488.28
2022-12-31T21:50:10.663Z,101492.31
2022-12-31T21:52:38.537Z,101453.88
2022-12-31T21:55:25.224Z,101474.06
2022-12-31T21:58:25.233Z,101411.13
2022-12-31T22:00:59.681Z,101502.41
2022-12-31T22:03:29.623Z,101478.47
2022-12-31T22:06:13.785Z,101515.53
2022-12-31T22:08:43.704Z,101481.72
2022-12-31T22:11:14.187Z,101510.63
2022-12-31T22:13:42.493Z,101499.16
2022-12-31T22:16:11.376Z,101502.47
2022-12-31T22:18:43.006Z,101486.91
2022-12-31T22:21:19.983Z,101434.31
2022-12-31T22:23:49.439Z,101517.16
2022-12-31T22:26:19.201Z,101514.44
2022-12-31T22:28:47.536Z,101513.63
2022-12-31T22:31:25.600Z,101501.91
2022-12-31T22:33:57.321Z,101521.00
2022-12-31T22:36:25.271Z,101518.78
2022-12-31T22:38:58.344Z,101511.69
2022-12-31T22:41:28.209Z,101483.63
2022-12-31T22:44:03.093Z,101467.84
2022-12-31T22:46:33.599Z,101509.81
2022-12-31T22:49:04.490Z,101507.63
2022-12-31T22:51:55.997Z,101472.47
2022-12-31T22:54:21.211Z,101488.28
2022-12-31T22:56:48.937Z,101517.44
2022-12-31T22:59:16.782Z,101441.38
2022-12-31T23:01:44.723Z,101508.97
2022-12-31T23:04:12.561Z,101489.38
2022-12-31T23:06:43.830Z,101519.91
2022-12-31T23:09:32.241Z,101468.66
2022-12-31T23:12:00.746Z,101499.72
2022-12-31T23:14:47.143Z,101487.44
2022-12-31T23:17:45.127Z,101471.38
2022-12-31T23:20:36.964Z,101443.25
2022-12-31T23:23:08.060Z,101512.25
2022-12-31T23:25:41.174Z,101487.69
2022-12-31T23:28:13.393Z,101510.63
2022-12-31T23:30:42.593Z,101503.25
2022-12-31T23:33:16.881Z,101466.72
2022-12-31T23:35:45.329Z,101505.72
2022-12-31T23:38:13.782Z,101504.63
2022-12-31T23:40:43.033Z,101488.28
2022-12-31T23:43:21.822Z,101505.16
2022-12-31T23:45:52.959Z,101512.25
2022-12-31T23:48:21.039Z,101498.06
2022-12-31T23:50:53.909Z,101515.25
2022-12-31T23:53:24.663Z,101475.16
2022-12-31T23:55:53.439Z,101432.09
2022-12-31T23:58:21.774Z,101495.91
